Time;durP1;ratioP1;P1;durP2;ratioP2;P2;SDS_P1;SDS_P2;PMS_P1;PMS_P2;Temp;Humidity;BMP_temperature;BMP_pressure;BME280_temperature;BME280_humidity;BME280_pressure;Samples;Min_cycle;Max_cycle;Signal;HPM_P1;HPM_P2
2021/10/30 00:01:37;;;;;;;;;;;;;;;6.10;68.27;102570.83;1858418;77;20153;-61
2021/10/30 00:04:05;;;;;;;;;;;;;;;6.08;68.31;102568.64;1858487;77;20134;-61
2021/10/30 00:06:34;;;;;;;;;;;;;;;6.09;68.56;102566.92;1858461;77;20143;-61
2021/10/30 00:09:01;;;;;;;;;;;;;;;6.12;68.58;102563.91;1858457;77;20111;-61
2021/10/30 00:11:29;;;;;;;;;;;;;;;6.18;68.37;102569.18;1858431;77;20176;-61
2021/10/30 00:13:57;;;;;;;;;;;;;;;6.23;68.18;102569.64;1857917;77;20106;-62
2021/10/30 00:16:26;;;;;;;;;;;;;;;6.25;68.52;102569.22;1858459;77;20495;-61
2021/10/30 00:18:54;;;;;;;;;;;;;;;6.26;68.65;102568.38;1858463;77;20170;-60
2021/10/30 00:21:22;;;;;;;;;;;;;;;6.23;68.58;102569.64;1858485;77;20122;-61
2021/10/30 00:23:49;;;;;;;;;;;;;;;6.20;68.48;102573.13;1858019;77;20103;-61
2021/10/30 00:26:17;;;;;;;;;;;;;;;6.22;68.31;102566.16;1858398;77;20150;-62
2021/10/30 00:28:45;;;;;;;;;;;;;;;6.21;68.27;102572.24;1858378;77;20119;-61
2021/10/30 00:31:13;;;;;;;;;;;;;;;6.22;68.29;102567.47;1858417;77;20142;-60
2021/10/30 00:33:41;;;;;;;;;;;;;;;6.23;68.32;102563.97;1858484;77;20115;-61
2021/10/30 00:36:09;;;;;;;;;;;;;;;6.26;68.61;102564.45;1858477;77;20122;-62
2021/10/30 00:38:37;;;;;;;;;;;;;;;6.27;68.58;102568.80;1858397;77;20115;-62
2021/10/30 00:41:06;;;;;;;;;;;;;;;6.27;68.59;102568.39;1858412;77;20127;-62
2021/10/30 00:43:34;;;;;;;;;;;;;;;6.29;68.38;102567.06;1857994;77;20153;-62
2021/10/30 00:46:02;;;;;;;;;;;;;;;6.30;68.21;102567.52;1858477;77;20114;-62
2021/10/30 00:48:30;;;;;;;;;;;;;;;6.32;68.13;102569.72;1858484;77;20111;-62
2021/10/30 00:50:59;;;;;;;;;;;;;;;6.33;68.06;102573.66;1858325;77;20153;-62
2021/10/30 00:53:29;;;;;;;;;;;;;;;6.34;68.09;102575.84;1858414;77;20417;-63
2021/10/30 00:55:58;;;;;;;;;;;;;;;6.33;68.24;102572.36;1858364;77;20123;-62
2021/10/30 00:58:26;;;;;;;;;;;;;;;6.32;68.17;102578.44;1852805;77;20152;-63
2021/10/30 01:00:54;;;;;;;;;;;;;;;6.32;68.09;102581.05;1841512;78;20220;-63
2021/10/30 01:03:22;;;;;;;;;;;;;;;6.34;68.01;102581.07;1838365;78;20420;-63
2021/10/30 01:05:50;;;;;;;;;;;;;;;6.37;67.98;102579.80;1838544;78;20154;-63
2021/10/30 01:08:19;;;;;;;;;;;;;;;6.38;67.89;102584.14;1838765;78;20123;-63
2021/10/30 01:10:47;;;;;;;;;;;;;;;6.41;67.96;102582.87;1843866;78;20111;-63
2021/10/30 01:13:15;;;;;;;;;;;;;;;6.43;68.08;102585.51;1841178;78;20198;-63
2021/10/30 01:15:43;;;;;;;;;;;;;;;6.44;68.19;102585.97;1840020;78;20111;-62
2021/10/30 01:18:13;;;;;;;;;;;;;;;6.44;68.22;102588.14;1840420;77;20119;-63
2021/10/30 01:20:40;;;;;;;;;;;;;;;6.45;68.17;102584.64;1839677;78;20119;-63
2021/10/30 01:23:08;;;;;;;;;;;;;;;6.46;68.29;102585.10;1843033;78;20182;-63
2021/10/30 01:25:37;;;;;;;;;;;;;;;6.46;68.39;102585.10;1843838;78;20123;-64
2021/10/30 01:28:05;;;;;;;;;;;;;;;6.45;68.47;102582.02;1842323;78;20163;-64
2021/10/30 01:30:33;;;;;;;;;;;;;;;6.45;68.31;102580.72;1840451;78;20111;-63
2021/10/30 01:33:03;;;;;;;;;;;;;;;6.45;68.34;102580.72;1840624;77;20140;-63
2021/10/30 01:35:33;;;;;;;;;;;;;;;6.47;68.22;102581.59;1841541;78;20398;-63
2021/10/30 01:38:02;;;;;;;;;;;;;;;6.48;68.39;102581.19;1840419;78;20115;-63
2021/10/30 01:40:32;;;;;;;;;;;;;;;6.48;68.21;102586.42;1839250;77;20115;-63
2021/10/30 01:43:01;;;;;;;;;;;;;;;6.49;68.47;102582.52;1839315;78;20119;-63
2021/10/30 01:45:30;;;;;;;;;;;;;;;6.48;68.37;102587.73;1838892;78;20385;-63
2021/10/30 01:47:57;;;;;;;;;;;;;;;6.48;68.81;102593.83;1841835;78;20123;-63
2021/10/30 01:50:27;;;;;;;;;;;;;;;6.45;68.86;102589.87;1843878;78;20123;-63
2021/10/30 01:52:56;;;;;;;;;;;;;;;6.44;68.87;102595.99;1843210;78;20175;-63
2021/10/30 01:55:26;;;;;;;;;;;;;;;6.44;68.65;102589.45;1840937;77;20123;-63
2021/10/30 01:57:54;;;;;;;;;;;;;;;6.45;68.99;102597.72;1839821;78;20116;-63
2021/10/30 02:00:21;;;;;;;;;;;;;;;6.46;68.75;102590.77;1813559;78;20130;-63
2021/10/30 02:02:49;;;;;;;;;;;;;;;6.46;68.71;102596.88;1812149;79;20188;-64
2021/10/30 02:05:17;;;;;;;;;;;;;;;6.46;68.83;102589.47;1812199;79;20126;-63
2021/10/30 02:07:45;;;;;;;;;;;;;;;6.46;69.14;102593.39;1812175;79;20212;-63
2021/10/30 02:10:13;;;;;;;;;;;;;;;6.45;69.09;102600.34;1812164;79;20164;-63
2021/10/30 02:12:41;;;;;;;;;;;;;;;6.44;69.23;102606.90;1812333;79;20148;-63
2021/10/30 02:15:10;;;;;;;;;;;;;;;6.44;69.34;102610.38;1780678;79;20113;-63
2021/10/30 02:17:39;;;;;;;;;;;;;;;6.45;69.44;102609.94;1806759;79;20388;-63
2021/10/30 02:20:09;;;;;;;;;;;;;;;6.43;69.54;102616.91;1812161;79;20133;-63
2021/10/30 02:22:38;;;;;;;;;;;;;;;6.40;69.54;102613.84;1812150;79;20423;-63
2021/10/30 02:25:07;;;;;;;;;;;;;;;6.36;70.19;102610.33;1812191;79;20450;-63
2021/10/30 02:27:35;;;;;;;;;;;;;;;6.34;69.90;102618.59;1812069;79;20422;-63
2021/10/30 02:30:06;;;;;;;;;;;;;;;6.34;70.05;102615.08;1812248;79;20122;-63
2021/10/30 02:32:34;;;;;;;;;;;;;;;6.33;70.22;102620.75;1812201;79;20156;-63
2021/10/30 02:35:02;;;;;;;;;;;;;;;6.34;70.20;102623.83;1812164;79;20109;-63
2021/10/30 02:37:30;;;;;;;;;;;;;;;6.34;70.10;102630.78;1812151;79;20154;-63
2021/10/30 02:39:58;;;;;;;;;;;;;;;6.34;70.00;102626.86;1812118;79;20122;-63
2021/10/30 02:42:26;;;;;;;;;;;;;;;6.34;70.18;102635.61;1812182;79;20235;-63
2021/10/30 02:44:54;;;;;;;;;;;;;;;6.33;70.49;102631.22;1812161;79;20125;-63
2021/10/30 02:47:22;;;;;;;;;;;;;;;6.32;70.32;102631.20;1812332;79;20153;-63
2021/10/30 02:49:49;;;;;;;;;;;;;;;6.33;69.98;102634.28;1812180;79;20109;-63
2021/10/30 02:52:17;;;;;;;;;;;;;;;6.35;70.27;102627.31;1812170;79;20129;-63
2021/10/30 02:54:46;;;;;;;;;;;;;;;6.34;70.08;102628.16;1812155;79;20177;-63
2021/10/30 02:57:14;;;;;;;;;;;;;;;6.35;70.14;102629.93;1812185;79;20114;-63
2021/10/30 02:59:41;;;;;;;;;;;;;;;6.34;70.05;102628.16;1824669;78;20154;-63
2021/10/30 03:02:09;;;;;;;;;;;;;;;6.34;69.87;102630.37;1846614;78;20111;-63
2021/10/30 03:04:37;;;;;;;;;;;;;;;6.36;69.84;102632.98;1846590;78;20150;-63
2021/10/30 03:07:05;;;;;;;;;;;;;;;6.36;70.16;102632.98;1846575;78;20119;-64
2021/10/30 03:09:33;;;;;;;;;;;;;;;6.36;70.14;102626.44;1846736;78;20154;-63
2021/10/30 03:12:01;;;;;;;;;;;;;;;6.37;70.17;102630.81;1846565;78;20119;-63
2021/10/30 03:14:28;;;;;;;;;;;;;;;6.36;70.23;102627.34;1846628;78;20147;-63
2021/10/30 03:16:56;;;;;;;;;;;;;;;6.32;70.74;102627.28;1846615;78;20160;-63
2021/10/30 03:19:24;;;;;;;;;;;;;;;6.31;70.79;102625.54;1846641;78;20156;-63
2021/10/30 03:21:52;;;;;;;;;;;;;;;6.33;70.69;102632.97;1846611;78;20393;-63
2021/10/30 03:24:21;;;;;;;;;;;;;;;6.36;70.66;102631.66;1846603;78;20119;-63
2021/10/30 03:26:48;;;;;;;;;;;;;;;6.36;70.80;102632.56;1846740;78;20120;-63
2021/10/30 03:29:16;;;;;;;;;;;;;;;6.36;70.64;102632.98;1846636;78;20238;-63
2021/10/30 03:31:44;;;;;;;;;;;;;;;6.36;70.56;102632.56;1846555;78;20107;-63
2021/10/30 03:34:12;;;;;;;;;;;;;;;6.36;70.48;102631.66;1846547;77;20154;-64
2021/10/30 03:36:40;;;;;;;;;;;;;;;6.37;70.31;102638.67;1846613;78;20111;-63
2021/10/30 03:39:07;;;;;;;;;;;;;;;6.37;70.41;102636.05;1846587;78;20154;-63
2021/10/30 03:41:35;;;;;;;;;;;;;;;6.38;70.34;102636.48;1846600;78;20250;-63
2021/10/30 03:44:03;;;;;;;;;;;;;;;6.38;70.29;102635.17;1846640;78;20152;-63
2021/10/30 03:46:31;;;;;;;;;;;;;;;6.38;70.42;102631.25;1846605;78;20179;-63
2021/10/30 03:48:59;;;;;;;;;;;;;;;6.37;70.64;102636.05;1846538;78;20198;-63
2021/10/30 03:51:28;;;;;;;;;;;;;;;6.35;70.74;102636.47;1846629;78;20111;-63
2021/10/30 03:53:55;;;;;;;;;;;;;;;6.36;70.56;102635.59;1846605;77;20230;-63
2021/10/30 03:56:23;;;;;;;;;;;;;;;6.35;70.36;102646.50;1846597;78;20148;-63
2021/10/30 03:58:51;;;;;;;;;;;;;;;6.35;70.32;102641.70;1846622;78;20127;-63
2021/10/30 04:01:19;;;;;;;;;;;;;;;6.36;70.18;102644.75;1846418;78;20160;-63
2021/10/30 04:03:47;;;;;;;;;;;;;;;6.40;70.12;102640.02;1846564;78;20213;-63
2021/10/30 04:06:15;;;;;;;;;;;;;;;6.37;70.30;102639.53;1846604;78;20144;-63
2021/10/30 04:08:44;;;;;;;;;;;;;;;6.39;70.43;102644.79;1846640;78;20138;-63
2021/10/30 04:11:12;;;;;;;;;;;;;;;6.38;70.37;102645.64;1846611;78;20115;-63
2021/10/30 04:13:39;;;;;;;;;;;;;;;6.36;70.52;102650.88;1846593;78;20183;-63
2021/10/30 04:16:07;;;;;;;;;;;;;;;6.36;71.17;102655.22;1846471;77;20146;-63
2021/10/30 04:18:35;;;;;;;;;;;;;;;6.33;71.38;102658.69;1846580;78;20203;-63
2021/10/30 04:21:03;;;;;;;;;;;;;;;6.34;71.19;102659.56;1846612;78;20186;-63
2021/10/30 04:23:31;;;;;;;;;;;;;;;6.35;71.74;102657.41;1846629;78;20127;-63
2021/10/30 04:25:59;;;;;;;;;;;;;;;6.35;72.45;102655.66;1846702;78;20115;-63
2021/10/30 04:28:27;;;;;;;;;;;;;;;6.35;72.31;102658.27;1846522;78;20127;-63
2021/10/30 04:30:58;;;;;;;;;;;;;;;6.38;72.40;102656.10;1846631;78;20148;-63
2021/10/30 04:33:24;;;;;;;;;;;;;;;6.39;72.92;102661.80;1846423;78;20167;-63
2021/10/30 04:35:52;;;;;;;;;;;;;;;6.38;73.46;102660.03;1846563;78;20152;-65
2021/10/30 04:38:20;;;;;;;;;;;;;;;6.37;73.86;102668.76;1846520;78;20123;-65
2021/10/30 04:40:48;;;;;;;;;;;;;;;6.36;74.25;102661.75;1846587;78;20123;-65
2021/10/30 04:43:15;;;;;;;;;;;;;;;6.35;73.90;102665.25;1846522;78;20147;-65
2021/10/30 04:45:43;;;;;;;;;;;;;;;6.37;73.89;102665.70;1846592;78;20140;-65
2021/10/30 04:48:12;;;;;;;;;;;;;;;6.38;73.82;102670.49;1846507;78;20123;-65
2021/10/30 04:50:40;;;;;;;;;;;;;;;6.40;74.36;102671.82;1846576;78;20418;-66
2021/10/30 04:53:08;;;;;;;;;;;;;;;6.40;75.13;102667.48;1846548;78;20115;-65
2021/10/30 04:55:36;;;;;;;;;;;;;;;6.40;74.46;102669.20;1846486;78;20141;-66
2021/10/30 04:58:03;;;;;;;;;;;;;;;6.42;74.48;102674.92;1846584;78;20111;-65
2021/10/30 05:00:31;;;;;;;;;;;;;;;6.44;74.99;102677.12;1843843;78;20179;-65
2021/10/30 05:02:59;;;;;;;;;;;;;;;6.43;74.68;102679.27;1838563;78;20204;-65
2021/10/30 05:05:27;;;;;;;;;;;;;;;6.45;74.94;102678.84;1839588;78;20154;-66
2021/10/30 05:07:55;;;;;;;;;;;;;;;6.47;74.86;102686.28;1838668;78;20119;-66
2021/10/30 05:10:23;;;;;;;;;;;;;;;6.47;75.13;102686.28;1841232;78;20229;-66
2021/10/30 05:12:51;;;;;;;;;;;;;;;6.48;75.20;102688.48;1840685;78;20123;-65
2021/10/30 05:15:18;;;;;;;;;;;;;;;6.51;76.06;102684.16;1838930;78;20119;-63
2021/10/30 05:17:46;;;;;;;;;;;;;;;6.48;75.69;102684.13;1840504;78;20158;-61
2021/10/30 05:20:14;;;;;;;;;;;;;;;6.51;75.57;102692.02;1839989;78;20107;-61
2021/10/30 05:22:42;;;;;;;;;;;;;;;6.50;75.85;102698.53;1840816;77;20210;-62
2021/10/30 05:25:10;;;;;;;;;;;;;;;6.50;75.84;102695.48;1839735;78;20154;-62
2021/10/30 05:27:38;;;;;;;;;;;;;;;6.52;75.92;102696.37;1839800;78;20158;-66
2021/10/30 05:30:06;;;;;;;;;;;;;;;6.54;75.69;102702.48;1837185;78;20150;-64
2021/10/30 05:32:34;;;;;;;;;;;;;;;6.59;75.63;102699.06;1838319;78;20111;-66
2021/10/30 05:35:19;;;;;;;;;;;;;;;6.60;75.62;102704.28;1835613;77;20194;-65
2021/10/30 05:37:58;;;;;;;;;;;;;;;6.65;75.10;102717.42;1816954;78;20153;-65
2021/10/30 05:40:26;;;;;;;;;;;;;;;6.68;75.03;102714.84;1797294;80;20122;-62
2021/10/30 05:42:54;;;;;;;;;;;;;;;6.70;75.15;102709.19;1760644;81;20154;-63
2021/10/30 05:45:22;;;;;;;;;;;;;;;6.72;74.87;102711.39;1797971;80;20112;-62
2021/10/30 05:47:50;;;;;;;;;;;;;;;6.76;75.23;102705.30;1787089;80;20253;-66
2021/10/30 05:50:18;;;;;;;;;;;;;;;6.74;75.43;102719.69;1823460;79;20164;-66
2021/10/30 05:52:46;;;;;;;;;;;;;;;6.66;75.56;102718.76;1840805;78;20112;-66
2021/10/30 05:55:13;;;;;;;;;;;;;;;6.64;75.44;102711.33;1835871;78;20127;-65
2021/10/30 05:57:41;;;;;;;;;;;;;;;6.68;75.19;102713.09;1833342;78;20159;-62
2021/10/30 06:00:10;;;;;;;;;;;;;;;6.75;75.63;102708.77;1829220;77;20128;-63
2021/10/30 06:02:41;;;;;;;;;;;;;;;6.86;75.10;102709.77;1841441;77;20111;-62
2021/10/30 06:05:09;;;;;;;;;;;;;;;6.95;75.00;102711.14;1841519;77;20135;-60
2021/10/30 06:07:38;;;;;;;;;;;;;;;7.00;74.78;102715.09;1847920;78;20166;-66
2021/10/30 06:10:06;;;;;;;;;;;;;;;7.03;74.60;102705.95;1848329;78;20406;-63
2021/10/30 06:12:38;;;;;;;;;;;;;;;7.02;74.56;102709.88;1843047;78;20111;-64
2021/10/30 06:15:04;;;;;;;;;;;;;;;7.04;74.61;102706.83;1805281;79;20122;-62
2021/10/30 06:17:32;;;;;;;;;;;;;;;7.04;74.64;102709.45;1791147;79;20124;-63
2021/10/30 06:20:00;;;;;;;;;;;;;;;7.05;74.39;102704.66;1809887;79;20152;-61
2021/10/30 06:22:28;;;;;;;;;;;;;;;7.09;74.44;102703.81;1785521;80;20158;-60
2021/10/30 06:24:56;;;;;;;;;;;;;;;7.11;74.31;102704.25;1815617;79;20169;-61
2021/10/30 06:27:24;;;;;;;;;;;;;;;7.14;74.31;102702.11;1815518;78;20243;-60
2021/10/30 06:29:52;;;;;;;;;;;;;;;7.21;74.16;102699.97;1809595;79;20125;-61
2021/10/30 06:32:20;;;;;;;;;;;;;;;7.31;73.86;102706.14;1785556;80;20123;-60
2021/10/30 06:34:48;;;;;;;;;;;;;;;7.39;73.66;102702.25;1815449;79;20192;-61
2021/10/30 06:37:15;;;;;;;;;;;;;;;7.57;73.28;102702.34;1809644;79;20121;-60
2021/10/30 06:39:43;;;;;;;;;;;;;;;7.58;73.05;102698.87;1785398;80;20127;-63
2021/10/30 06:42:11;;;;;;;;;;;;;;;7.71;72.83;102699.36;1815518;79;20110;-61
2021/10/30 06:44:40;;;;;;;;;;;;;;;7.88;72.34;102694.17;1815545;79;20125;-60
2021/10/30 06:47:08;;;;;;;;;;;;;;;7.94;71.48;102701.19;1815545;79;20121;-61
2021/10/30 06:49:35;;;;;;;;;;;;;;;8.06;71.15;102698.61;1815504;79;20109;-60
2021/10/30 06:52:05;;;;;;;;;;;;;;;8.39;70.78;102697.34;1815492;79;20199;-61
2021/10/30 06:54:33;;;;;;;;;;;;;;;9.23;69.07;102693.86;1815621;79;20196;-61
2021/10/30 06:57:01;;;;;;;;;;;;;;;9.30;68.40;102696.05;1815577;78;20126;-61
2021/10/30 06:59:30;;;;;;;;;;;;;;;9.06;67.96;102692.13;1815575;79;20125;-61
2021/10/30 07:01:58;;;;;;;;;;;;;;;8.77;68.24;102693.47;1819671;78;20184;-61
2021/10/30 07:04:25;;;;;;;;;;;;;;;8.57;68.57;102688.66;1809473;79;20125;-61
2021/10/30 07:06:53;;;;;;;;;;;;;;;8.40;68.94;102686.85;1834405;78;20103;-61
2021/10/30 07:09:21;;;;;;;;;;;;;;;8.54;69.29;102683.39;1834599;78;20124;-61
2021/10/30 07:11:49;;;;;;;;;;;;;;;8.63;69.00;102676.83;1834626;78;20119;-61
2021/10/30 07:14:18;;;;;;;;;;;;;;;9.29;68.06;102674.11;1834557;78;20166;-61
2021/10/30 07:16:46;;;;;;;;;;;;;;;10.15;65.32;102674.19;1834600;78;20370;-61
2021/10/30 07:19:14;;;;;;;;;;;;;;;11.11;64.22;102679.11;1834581;78;20112;-61
2021/10/30 07:21:42;;;;;;;;;;;;;;;11.84;60.87;102673.87;1834560;78;20254;-61
2021/10/30 07:24:09;;;;;;;;;;;;;;;12.47;60.91;102678.26;1834673;78;20123;-61
2021/10/30 07:26:37;;;;;;;;;;;;;;;12.91;58.47;102679.70;1834595;78;20201;-61
2021/10/30 07:29:05;;;;;;;;;;;;;;;12.79;58.08;102674.66;1834593;78;20394;-61
2021/10/30 07:31:33;;;;;;;;;;;;;;;13.28;56.00;102667.14;1834741;78;20120;-61
2021/10/30 07:34:00;;;;;;;;;;;;;;;13.68;54.37;102667.66;1834458;78;20124;-61
2021/10/30 07:36:28;;;;;;;;;;;;;;;12.89;54.98;102669.18;1834588;78;20150;-61
2021/10/30 07:38:56;;;;;;;;;;;;;;;11.89;56.94;102670.70;1834581;78;20182;-60
2021/10/30 07:41:24;;;;;;;;;;;;;;;11.35;58.43;102675.80;1834564;78;20151;-62
2021/10/30 07:43:54;;;;;;;;;;;;;;;11.22;59.16;102678.14;1834564;78;20150;-62
2021/10/30 07:46:23;;;;;;;;;;;;;;;10.80;59.81;102673.27;1834607;78;20537;-62
2021/10/30 07:48:53;;;;;;;;;;;;;;;10.60;60.48;102672.12;1834666;78;20124;-61
2021/10/30 07:51:22;;;;;;;;;;;;;;;10.61;60.39;102673.87;1834512;78;20183;-62
2021/10/30 07:53:50;;;;;;;;;;;;;;;10.20;61.08;102681.62;1833756;78;20112;-62
2021/10/30 07:56:17;;;;;;;;;;;;;;;10.13;61.85;102677.27;1834607;78;20205;-62
2021/10/30 07:58:45;;;;;;;;;;;;;;;11.01;61.01;102670.86;1834548;78;20108;-62
2021/10/30 08:01:14;;;;;;;;;;;;;;;11.65;58.94;102674.54;1834569;78;20225;-62
2021/10/30 08:03:42;;;;;;;;;;;;;;;12.02;57.27;102674.53;1834506;77;20123;-61
2021/10/30 08:06:10;;;;;;;;;;;;;;;12.10;57.33;102671.36;1834591;78;20158;-62
2021/10/30 08:08:38;;;;;;;;;;;;;;;13.41;56.23;102667.34;1834573;78;20449;-61
2021/10/30 08:11:05;;;;;;;;;;;;;;;14.53;54.03;102666.58;1834581;78;20119;-60
2021/10/30 08:13:33;;;;;;;;;;;;;;;15.66;52.63;102671.52;1834509;78;20123;-60
2021/10/30 08:16:01;;;;;;;;;;;;;;;16.56;51.38;102663.39;1834543;78;20147;-59
2021/10/30 08:18:29;;;;;;;;;;;;;;;17.16;50.14;102656.47;1834592;78;20123;-60
2021/10/30 08:20:57;;;;;;;;;;;;;;;17.55;47.53;102658.57;1834597;78;20115;-60
2021/10/30 08:23:24;;;;;;;;;;;;;;;17.73;47.03;102657.86;1834589;78;20154;-60
2021/10/30 08:25:52;;;;;;;;;;;;;;;18.20;46.74;102656.06;1834624;78;20150;-61
2021/10/30 08:28:20;;;;;;;;;;;;;;;18.25;44.20;102650.09;1834570;78;20158;-60
2021/10/30 08:30:48;;;;;;;;;;;;;;;18.50;43.84;102648.14;1834621;78;20136;-60
2021/10/30 08:33:16;;;;;;;;;;;;;;;18.76;44.15;102645.27;1834550;78;20154;-60
2021/10/30 08:35:44;;;;;;;;;;;;;;;18.85;42.44;102639.56;1834526;78;20150;-61
2021/10/30 08:38:13;;;;;;;;;;;;;;;18.80;42.37;102639.74;1834516;78;20127;-60
2021/10/30 08:40:41;;;;;;;;;;;;;;;18.94;42.42;102649.87;1834471;78;20115;-60
2021/10/30 08:43:09;;;;;;;;;;;;;;;18.96;42.10;102641.77;1834547;78;20116;-60
2021/10/30 08:45:37;;;;;;;;;;;;;;;19.13;41.44;102641.89;1834585;78;20166;-60
2021/10/30 08:48:06;;;;;;;;;;;;;;;19.18;40.97;102637.22;1834556;78;20111;-61
2021/10/30 08:50:35;;;;;;;;;;;;;;;19.00;39.73;102635.38;1834552;78;20124;-60
2021/10/30 08:53:03;;;;;;;;;;;;;;;18.67;40.45;102631.88;1834614;78;20112;-61
2021/10/30 08:55:31;;;;;;;;;;;;;;;18.39;40.68;102630.39;1834564;78;20131;-60
2021/10/30 08:58:07;;;;;;;;;;;;;;;18.40;40.70;102630.77;1834546;78;20150;-60
2021/10/30 09:00:36;;;;;;;;;;;;;;;18.39;40.75;102630.83;1833609;78;20206;-61
2021/10/30 09:03:05;;;;;;;;;;;;;;;18.43;40.48;102634.66;1836034;78;20124;-60
2021/10/30 09:05:33;;;;;;;;;;;;;;;18.22;40.96;102628.43;1843253;78;20247;-62
2021/10/30 09:08:03;;;;;;;;;;;;;;;18.42;40.79;102625.38;1834023;78;20124;-61
2021/10/30 09:10:35;;;;;;;;;;;;;;;18.40;41.04;102625.44;1832330;78;20156;-62
2021/10/30 09:13:04;;;;;;;;;;;;;;;18.76;41.05;102629.25;1831975;78;20145;-61
2021/10/30 09:15:33;;;;;;;;;;;;;;;18.60;40.64;102623.73;1832177;78;20164;-61
2021/10/30 09:18:01;;;;;;;;;;;;;;;17.89;42.23;102612.87;1832168;78;20124;-61
2021/10/30 09:20:36;;;;;;;;;;;;;;;18.31;42.06;102619.16;1832133;78;20233;-61
2021/10/30 09:23:05;;;;;;;;;;;;;;;18.61;41.28;102613.45;1832205;78;20150;-61
2021/10/30 09:25:33;;;;;;;;;;;;;;;18.88;41.11;102626.09;1831917;78;20124;-61
2021/10/30 09:28:02;;;;;;;;;;;;;;;18.70;40.95;102607.27;1832196;78;20119;-62
2021/10/30 09:30:34;;;;;;;;;;;;;;;19.03;40.63;102607.19;1832155;78;20124;-62
2021/10/30 09:33:03;;;;;;;;;;;;;;;19.20;40.50;102601.97;1832302;78;20206;-60
2021/10/30 09:35:36;;;;;;;;;;;;;;;19.39;40.38;102599.30;1832151;78;20278;-60
2021/10/30 09:38:04;;;;;;;;;;;;;;;19.43;40.65;102596.02;1831757;78;20120;-60
2021/10/30 09:40:33;;;;;;;;;;;;;;;19.39;40.76;102592.63;1832334;78;20124;-60
2021/10/30 09:43:14;;;;;;;;;;;;;;;19.46;40.87;102595.88;1832067;78;20116;-62
2021/10/30 09:45:43;;;;;;;;;;;;;;;19.45;41.03;102591.46;1831560;78;20120;-61
2021/10/30 09:48:13;;;;;;;;;;;;;;;19.40;40.52;102593.03;1831459;77;20143;-61
2021/10/30 09:50:41;;;;;;;;;;;;;;;19.06;40.97;102596.38;1832249;78;20223;-61
2021/10/30 09:53:26;;;;;;;;;;;;;;;19.11;41.22;102594.38;1832195;78;20152;-61
2021/10/30 09:55:55;;;;;;;;;;;;;;;19.62;41.05;102591.99;1832101;78;20164;-61
2021/10/30 09:58:28;;;;;;;;;;;;;;;20.03;40.66;102582.00;1822604;78;20151;-65
2021/10/30 10:00:57;;;;;;;;;;;;;;;20.32;39.91;102576.97;1834183;77;20139;-64
2021/10/30 10:03:30;;;;;;;;;;;;;;;20.20;39.60;102581.63;1843073;77;20115;-70
2021/10/30 10:05:57;;;;;;;;;;;;;;;19.95;39.88;102577.48;1840316;78;20282;-67
2021/10/30 10:08:25;;;;;;;;;;;;;;;19.81;40.19;102575.98;1835725;77;20442;-69
2021/10/30 10:10:57;;;;;;;;;;;;;;;19.64;40.11;102572.29;1824038;78;20200;-67
2021/10/30 10:13:28;;;;;;;;;;;;;;;19.37;40.89;102570.94;1838966;78;20162;-66
2021/10/30 10:15:57;;;;;;;;;;;;;;;19.47;41.35;102570.88;1841139;77;20241;-70
2021/10/30 10:18:24;;;;;;;;;;;;;;;19.74;40.19;102565.20;1845074;78;20154;-68
2021/10/30 10:20:53;;;;;;;;;;;;;;;19.55;40.96;102567.39;1842824;77;20245;-66
2021/10/30 10:23:21;;;;;;;;;;;;;;;19.40;40.55;102565.42;1829371;77;20107;-66
2021/10/30 10:25:51;;;;;;;;;;;;;;;19.13;41.10;102560.45;1838656;78;20153;-64
2021/10/30 10:28:20;;;;;;;;;;;;;;;19.15;41.19;102567.92;1823962;78;20125;-65
2021/10/30 10:30:52;;;;;;;;;;;;;;;19.16;41.33;102558.95;1822602;78;20160;-65
2021/10/30 10:33:20;;;;;;;;;;;;;;;19.17;41.40;102552.70;1840661;78;20606;-65
2021/10/30 10:36:05;;;;;;;;;;;;;;;18.99;41.36;102554.88;1840679;78;20154;-66
2021/10/30 10:38:52;;;;;;;;;;;;;;;18.96;41.50;102555.02;1845074;78;20119;-63
2021/10/30 10:41:40;;;;;;;;;;;;;;;18.99;41.68;102550.88;1802115;79;20212;-69
2021/10/30 10:44:12;;;;;;;;;;;;;;;18.95;41.79;102547.95;1840880;78;20186;-65
2021/10/30 10:46:41;;;;;;;;;;;;;;;18.84;41.45;102548.44;1840224;78;20103;-65
2021/10/30 10:49:21;;;;;;;;;;;;;;;18.48;41.92;102548.64;1839821;78;20146;-62
2021/10/30 10:51:52;;;;;;;;;;;;;;;18.14;42.83;102550.08;1831907;78;20156;-63
2021/10/30 10:54:18;;;;;;;;;;;;;;;18.10;43.22;102545.81;1787703;80;20210;-61
2021/10/30 10:56:59;;;;;;;;;;;;;;;17.77;43.72;102541.86;1815791;79;20109;-63
2021/10/30 10:59:41;;;;;;;;;;;;;;;17.84;43.94;102545.53;1812368;79;20130;-62
2021/10/30 11:02:21;;;;;;;;;;;;;;;17.09;44.82;102541.36;1811404;78;20188;-62
2021/10/30 11:05:07;;;;;;;;;;;;;;;16.60;46.14;102547.15;1794116;79;20122;-61
2021/10/30 11:07:36;;;;;;;;;;;;;;;15.98;47.53;102541.27;1834726;78;20154;-61
2021/10/30 11:10:05;;;;;;;;;;;;;;;16.17;47.89;102544.16;1834583;78;20410;-61
2021/10/30 11:12:33;;;;;;;;;;;;;;;16.57;47.21;102537.47;1834568;78;20123;-62
2021/10/30 11:15:05;;;;;;;;;;;;;;;16.57;47.17;102533.48;1834548;78;20124;-61
2021/10/30 11:17:50;;;;;;;;;;;;;;;16.58;47.11;102538.33;1834698;78;20421;-61
2021/10/30 11:20:17;;;;;;;;;;;;;;;16.59;47.26;102528.97;1834402;77;20124;-62
2021/10/30 11:22:55;;;;;;;;;;;;;;;16.67;47.27;102530.48;1834536;78;20120;-61
2021/10/30 11:25:23;;;;;;;;;;;;;;;16.60;47.26;102526.73;1809097;79;20212;-61
2021/10/30 11:27:52;;;;;;;;;;;;;;;16.44;47.70;102532.19;1835502;77;20120;-61
2021/10/30 11:30:38;;;;;;;;;;;;;;;16.53;47.82;102529.20;1834584;78;20127;-61
2021/10/30 11:33:25;;;;;;;;;;;;;;;16.71;47.80;102530.77;1834587;78;20162;-61
2021/10/30 11:36:11;;;;;;;;;;;;;;;16.48;48.11;102532.48;1834535;78;20152;-61
2021/10/30 11:38:40;;;;;;;;;;;;;;;16.35;48.58;102522.73;1834534;78;20175;-60
2021/10/30 11:41:14;;;;;;;;;;;;;;;16.09;48.97;102531.61;1827301;78;20159;-61
2021/10/30 11:43:42;;;;;;;;;;;;;;;16.02;49.36;102522.10;1834533;78;20115;-61
2021/10/30 11:46:12;;;;;;;;;;;;;;;15.74;49.93;102519.50;1834466;78;20135;-60
2021/10/30 11:48:41;;;;;;;;;;;;;;;15.38;50.74;102521.91;1834550;78;20154;-61
2021/10/30 11:51:10;;;;;;;;;;;;;;;15.09;51.69;102532.52;1834515;78;20183;-61
2021/10/30 11:53:38;;;;;;;;;;;;;;;14.70;52.46;102527.01;1833349;77;20120;-61
2021/10/30 11:56:09;;;;;;;;;;;;;;;14.42;53.45;102526.41;1834543;78;20155;-60
2021/10/30 11:58:41;;;;;;;;;;;;;;;14.13;54.31;102521.86;1834086;78;20410;-61
2021/10/30 12:01:26;;;;;;;;;;;;;;;13.97;54.54;102520.50;1834562;78;20124;-61
2021/10/30 12:03:54;;;;;;;;;;;;;;;13.88;55.35;102527.75;1834469;78;20146;-61
2021/10/30 12:06:22;;;;;;;;;;;;;;;13.81;55.33;102527.48;1834483;77;20159;-61
2021/10/30 12:08:51;;;;;;;;;;;;;;;13.71;56.08;102520.68;1834497;78;20150;-62
2021/10/30 12:11:19;;;;;;;;;;;;;;;13.58;56.53;102515.27;1834492;78;20594;-62
2021/10/30 12:13:48;;;;;;;;;;;;;;;13.48;56.92;102517.23;1834571;78;20120;-60
2021/10/30 12:16:16;;;;;;;;;;;;;;;13.40;57.23;102528.00;1834540;78;20166;-61
2021/10/30 12:18:44;;;;;;;;;;;;;;;13.40;57.15;102524.02;1834576;78;20128;-61
2021/10/30 12:21:13;;;;;;;;;;;;;;;13.38;57.42;102526.30;1834573;78;20123;-60
2021/10/30 12:23:55;;;;;;;;;;;;;;;13.30;57.71;102537.02;1833691;77;20147;-61
2021/10/30 12:26:23;;;;;;;;;;;;;;;13.22;58.01;102526.58;1834139;78;20123;-61
2021/10/30 12:28:51;;;;;;;;;;;;;;;13.21;57.81;102529.28;1834558;78;20104;-60
2021/10/30 12:31:29;;;;;;;;;;;;;;;13.24;57.85;102524.80;1834571;78;20202;-61
2021/10/30 12:33:58;;;;;;;;;;;;;;;13.22;58.52;102527.91;1834754;78;20428;-61
2021/10/30 12:36:27;;;;;;;;;;;;;;;13.19;58.21;102524.48;1834530;78;20477;-61
2021/10/30 12:38:57;;;;;;;;;;;;;;;13.18;58.27;102528.02;1834644;78;20124;-60
2021/10/30 12:41:26;;;;;;;;;;;;;;;13.09;58.37;102520.69;1834591;78;20159;-61
2021/10/30 12:43:56;;;;;;;;;;;;;;;13.04;58.66;102524.33;1834292;78;20154;-61
2021/10/30 12:46:24;;;;;;;;;;;;;;;12.95;58.62;102521.45;1834416;78;20186;-62
2021/10/30 12:48:51;;;;;;;;;;;;;;;12.87;58.82;102524.25;1834540;78;20190;-61
2021/10/30 12:51:22;;;;;;;;;;;;;;;12.83;58.95;102524.33;1834619;78;20159;-61
2021/10/30 12:53:54;;;;;;;;;;;;;;;12.81;59.15;102519.53;1834574;78;20127;-61